createdAt,value
2022-08-23T00:02:26.693Z,19.55
2022-08-23T00:05:15.411Z,19.60
2022-08-23T00:08:04.572Z,19.65
2022-08-23T00:10:53.169Z,19.67
2022-08-23T00:13:47.486Z,19.73
2022-08-23T00:16:36.900Z,19.84
2022-08-23T00:19:25.880Z,19.86
2022-08-23T00:22:15.128Z,19.86
2022-08-23T00:25:07.776Z,19.80
2022-08-23T00:27:56.562Z,19.88
2022-08-23T00:30:47.931Z,19.86
2022-08-23T00:33:36.472Z,19.89
2022-08-23T00:36:25.097Z,19.91
2022-08-23T00:39:13.619Z,19.92
2022-08-23T00:42:28.204Z,19.90
2022-08-23T00:45:38.854Z,19.94
2022-08-23T00:48:28.851Z,19.83
2022-08-23T00:51:21.691Z,19.87
2022-08-23T00:54:11.237Z,19.89
2022-08-23T00:57:01.701Z,19.92
2022-08-23T00:59:50.411Z,19.99
2022-08-23T01:02:41.448Z,19.98
2022-08-23T01:05:35.941Z,20.00
2022-08-23T01:08:27.439Z,19.83
2022-08-23T01:11:20.092Z,19.65
2022-08-23T01:14:13.248Z,19.41
2022-08-23T01:17:05.585Z,19.17
2022-08-23T01:19:57.285Z,19.04
2022-08-23T01:22:50.698Z,19.09
2022-08-23T01:25:40.902Z,19.04
2022-08-23T01:28:29.651Z,18.89
2022-08-23T01:31:19.119Z,18.80
2022-08-23T01:34:09.712Z,18.50
2022-08-23T01:37:00.203Z,18.46
2022-08-23T01:39:48.745Z,18.57
2022-08-23T01:42:41.553Z,18.39
2022-08-23T01:45:30.634Z,18.36
2022-08-23T01:48:19.819Z,18.12
2022-08-23T01:51:08.529Z,18.09
2022-08-23T01:53:57.022Z,18.00
2022-08-23T01:56:46.918Z,18.00
2022-08-23T01:59:36.817Z,18.10
2022-08-23T02:02:25.757Z,17.63
2022-08-23T02:05:14.450Z,17.99
2022-08-23T02:08:26.232Z,17.95
2022-08-23T02:11:17.128Z,17.83
2022-08-23T02:14:08.487Z,17.80
2022-08-23T02:17:03.802Z,17.86
2022-08-23T02:19:53.532Z,17.81
2022-08-23T02:22:42.080Z,17.82
2022-08-23T02:25:30.952Z,17.76
2022-08-23T02:28:19.508Z,17.72
2022-08-23T02:31:08.089Z,17.62
2022-08-23T02:34:01.640Z,17.74
2022-08-23T02:36:50.305Z,17.90
2022-08-23T02:39:39.353Z,17.79
2022-08-23T02:42:28.410Z,17.71
2022-08-23T02:45:17.362Z,17.69
2022-08-23T02:48:06.561Z,17.68
2022-08-23T02:50:59.939Z,17.70
2022-08-23T02:53:48.555Z,17.55
2022-08-23T02:56:37.217Z,17.56
2022-08-23T02:59:25.791Z,17.42
2022-08-23T03:02:14.306Z,17.32
2022-08-23T03:05:02.850Z,17.11
2022-08-23T03:07:52.846Z,17.24
2022-08-23T03:10:43.676Z,17.18
2022-08-23T03:13:32.160Z,17.30
2022-08-23T03:16:21.309Z,17.20
2022-08-23T03:19:10.144Z,17.09
2022-08-23T03:21:58.667Z,17.05
2022-08-23T03:24:48.557Z,17.09
2022-08-23T03:27:38.267Z,17.03
2022-08-23T03:30:33.725Z,17.06
2022-08-23T03:33:22.284Z,17.05
2022-08-23T03:36:12.119Z,16.99
2022-08-23T03:39:00.907Z,16.62
2022-08-23T03:41:50.777Z,16.77
2022-08-23T03:44:39.482Z,16.76
2022-08-23T03:47:28.839Z,16.70
2022-08-23T03:50:17.396Z,16.71
2022-08-23T03:53:05.949Z,16.57
2022-08-23T03:55:56.301Z,16.51
2022-08-23T03:58:46.216Z,16.44
2022-08-23T04:01:34.805Z,16.30
2022-08-23T04:04:23.841Z,16.34
2022-08-23T04:07:12.531Z,16.24
2022-08-23T04:10:01.033Z,16.26
2022-08-23T04:12:49.861Z,16.32
2022-08-23T04:15:39.799Z,16.29
2022-08-23T04:18:32.575Z,16.29
2022-08-23T04:21:23.658Z,16.32
2022-08-23T04:24:12.197Z,16.40
2022-08-23T04:27:00.682Z,16.39
2022-08-23T04:29:50.352Z,16.42
2022-08-23T04:32:40.932Z,16.42
2022-08-23T04:35:32.221Z,16.27
2022-08-23T04:38:24.428Z,16.20
2022-08-23T04:41:31.350Z,16.16
2022-08-23T04:44:19.929Z,16.19
2022-08-23T04:47:08.471Z,16.18
2022-08-23T04:49:58.327Z,16.20
2022-08-23T04:52:46.880Z,16.23
2022-08-23T04:55:36.515Z,16.36
2022-08-23T04:58:25.228Z,16.32
2022-08-23T05:01:16.067Z,16.43
2022-08-23T05:04:05.499Z,16.42
2022-08-23T05:06:55.369Z,16.55
2022-08-23T05:09:43.894Z,16.61
2022-08-23T05:12:32.431Z,16.69
2022-08-23T05:15:21.148Z,16.61
2022-08-23T05:18:09.967Z,16.76
2022-08-23T05:20:58.496Z,16.94
2022-08-23T05:23:50.839Z,16.98
2022-08-23T05:26:43.197Z,16.97
2022-08-23T05:29:31.923Z,17.11
2022-08-23T05:32:20.442Z,17.18
2022-08-23T05:35:09.757Z,17.18
2022-08-23T05:37:59.708Z,17.43
2022-08-23T05:40:52.653Z,17.39
2022-08-23T05:43:44.255Z,17.55
2022-08-23T05:46:33.265Z,17.76
2022-08-23T05:49:21.810Z,17.77
2022-08-23T05:52:13.656Z,17.72
2022-08-23T05:55:02.695Z,17.92
2022-08-23T05:57:52.590Z,18.13
2022-08-23T06:00:41.302Z,18.19
2022-08-23T06:03:30.075Z,18.44
2022-08-23T06:06:20.265Z,18.61
2022-08-23T06:09:10.894Z,18.73
2022-08-23T06:12:00.004Z,18.92
2022-08-23T06:14:49.910Z,18.92
2022-08-23T06:17:39.368Z,19.22
2022-08-23T06:20:27.971Z,19.38
2022-08-23T06:23:16.540Z,19.57
2022-08-23T06:26:11.251Z,19.65
2022-08-23T06:29:02.435Z,19.90
2022-08-23T06:31:53.907Z,20.11
2022-08-23T06:34:42.463Z,20.41
2022-08-23T06:37:30.989Z,20.67
2022-08-23T06:40:19.701Z,20.79
2022-08-23T06:43:08.436Z,21.05
2022-08-23T06:45:58.379Z,21.31
2022-08-23T06:48:48.981Z,21.38
2022-08-23T06:51:39.258Z,21.60
2022-08-23T06:54:31.380Z,21.75
2022-08-23T06:57:20.498Z,21.94
2022-08-23T07:00:11.255Z,22.08
2022-08-23T07:03:00.264Z,22.30
2022-08-23T07:05:50.555Z,22.53
2022-08-23T07:08:39.161Z,22.87
2022-08-23T07:11:32.377Z,23.02
2022-08-23T07:14:24.655Z,22.92
2022-08-23T07:17:14.399Z,23.18
2022-08-23T07:20:02.956Z,23.45
2022-08-23T07:22:52.871Z,23.68
2022-08-23T07:25:41.484Z,24.04
2022-08-23T07:28:30.744Z,24.23
2022-08-23T07:31:21.225Z,24.50
2022-08-23T07:34:10.280Z,24.99
2022-08-23T07:36:58.827Z,25.17
2022-08-23T07:39:48.737Z,25.49
2022-08-23T07:42:37.320Z,25.78
2022-08-23T07:45:27.040Z,25.89
2022-08-23T07:48:23.539Z,25.82
2022-08-23T07:51:20.550Z,25.96
2022-08-23T07:54:11.394Z,26.16
2022-08-23T07:57:01.477Z,26.35
2022-08-23T07:59:49.983Z,26.45
2022-08-23T08:02:38.627Z,26.67
2022-08-23T08:05:27.111Z,26.73
2022-08-23T08:08:15.743Z,26.84
2022-08-23T08:11:04.363Z,26.93
2022-08-23T08:13:56.279Z,27.34
2022-08-23T08:16:46.584Z,27.36
2022-08-23T08:19:35.232Z,27.34
2022-08-23T08:22:23.794Z,27.53
2022-08-23T08:25:12.449Z,27.63
2022-08-23T08:28:01.598Z,27.70
2022-08-23T08:30:51.633Z,27.92
2022-08-23T08:33:40.661Z,27.98
2022-08-23T08:36:36.023Z,28.20
2022-08-23T08:39:27.361Z,28.35
2022-08-23T08:42:28.685Z,28.44
2022-08-23T08:45:21.531Z,28.74
2022-08-23T08:48:15.524Z,28.88
2022-08-23T08:51:12.587Z,29.04
2022-08-23T08:54:03.533Z,29.22
2022-08-23T08:56:54.015Z,29.00
2022-08-23T08:59:47.505Z,29.18
2022-08-23T09:02:37.001Z,29.21
2022-08-23T09:05:31.540Z,29.27
2022-08-23T09:08:31.779Z,29.20
2022-08-23T09:11:32.720Z,29.07
2022-08-23T09:14:38.934Z,29.01
2022-08-23T09:17:33.884Z,29.31
2022-08-23T09:20:24.324Z,29.52
2022-08-23T09:23:19.841Z,29.60
2022-08-23T09:26:18.660Z,29.71
2022-08-23T09:29:18.465Z,29.66
2022-08-23T09:32:08.904Z,29.72
2022-08-23T09:35:12.556Z,29.84
2022-08-23T09:38:04.869Z,29.96
2022-08-23T09:40:54.737Z,30.29
2022-08-23T09:43:47.161Z,29.94
2022-08-23T09:46:39.137Z,30.38
2022-08-23T09:49:30.804Z,30.50
2022-08-23T09:52:24.064Z,30.37
2022-08-23T09:55:32.686Z,30.24
2022-08-23T09:58:28.360Z,30.10
2022-08-23T10:01:20.655Z,30.41
2022-08-23T10:04:12.807Z,30.29
2022-08-23T10:07:02.518Z,30.64
2022-08-23T10:09:51.498Z,30.87
2022-08-23T10:12:40.075Z,31.09
2022-08-23T10:15:41.364Z,31.39
2022-08-23T10:18:40.290Z,31.42
2022-08-23T10:21:34.162Z,31.37
2022-08-23T10:24:31.124Z,31.29
2022-08-23T10:27:47.820Z,31.64
2022-08-23T10:30:48.008Z,31.78
2022-08-23T10:33:42.648Z,32.00
2022-08-23T10:36:35.452Z,31.42
2022-08-23T10:39:26.325Z,31.58
2022-08-23T10:42:21.024Z,31.57
2022-08-23T10:45:17.880Z,31.41
2022-08-23T10:48:27.192Z,31.82
2022-08-23T10:51:23.181Z,31.49
2022-08-23T10:54:34.745Z,31.66
2022-08-23T10:57:24.628Z,31.69
2022-08-23T11:00:18.129Z,31.90
2022-08-23T11:03:25.481Z,32.05
2022-08-23T11:06:41.779Z,31.36
2022-08-23T11:10:04.975Z,31.85
2022-08-23T11:12:55.987Z,32.14
2022-08-23T11:15:46.548Z,31.90
2022-08-23T11:18:43.365Z,32.27
2022-08-23T11:21:48.264Z,32.52
2022-08-23T11:25:01.417Z,32.78
2022-08-23T11:27:50.317Z,32.94
2022-08-23T11:30:47.215Z,32.54
2022-08-23T11:33:37.757Z,32.43
2022-08-23T11:36:29.184Z,32.93
2022-08-23T11:39:25.335Z,32.82
2022-08-23T11:42:19.420Z,32.70
2022-08-23T11:45:22.464Z,32.45
2022-08-23T11:48:19.100Z,32.42
2022-08-23T11:51:28.328Z,32.84
2022-08-23T11:54:36.108Z,33.02
2022-08-23T11:57:33.821Z,33.33
2022-08-23T12:00:28.564Z,33.46
2022-08-23T12:03:24.621Z,33.53
2022-08-23T12:06:50.542Z,33.60
2022-08-23T12:09:54.742Z,33.76
2022-08-23T12:12:47.127Z,33.53
2022-08-23T12:16:06.344Z,33.52
2022-08-23T12:18:57.265Z,33.38
2022-08-23T12:21:50.265Z,33.22
2022-08-23T12:24:43.823Z,33.57
2022-08-23T12:27:34.708Z,33.73
2022-08-23T12:30:26.167Z,33.78
2022-08-23T12:33:24.449Z,33.87
2022-08-23T12:36:17.774Z,33.96
2022-08-23T12:39:11.756Z,33.88
2022-08-23T12:42:05.782Z,33.76
2022-08-23T12:45:07.868Z,33.62
2022-08-23T12:47:58.918Z,33.74
2022-08-23T12:50:54.549Z,33.60
2022-08-23T12:53:45.745Z,33.18
2022-08-23T12:56:36.704Z,33.26
2022-08-23T12:59:35.751Z,33.34
2022-08-23T13:02:27.305Z,33.63
2022-08-23T13:05:23.844Z,33.16
2022-08-23T13:08:15.822Z,33.38
2022-08-23T13:11:08.184Z,32.79
2022-08-23T13:13:58.479Z,33.19
2022-08-23T13:16:47.031Z,32.35
2022-08-23T13:19:36.524Z,32.65
2022-08-23T13:22:26.665Z,33.01
2022-08-23T13:25:29.681Z,32.76
2022-08-23T13:28:25.093Z,32.65
2022-08-23T13:31:15.161Z,32.13
2022-08-23T13:34:03.860Z,32.16
2022-08-23T13:36:54.756Z,32.13
2022-08-23T13:39:47.414Z,32.14
2022-08-23T13:42:38.815Z,32.18
2022-08-23T13:45:29.435Z,32.62
2022-08-23T13:48:22.147Z,32.89
2022-08-23T13:51:36.937Z,33.21
2022-08-23T13:54:25.921Z,33.27
2022-08-23T13:57:16.585Z,33.21
2022-08-23T14:00:08.575Z,33.24
2022-08-23T14:02:57.182Z,33.54
2022-08-23T14:05:47.118Z,33.74
2022-08-23T14:08:35.704Z,33.86
2022-08-23T14:11:24.247Z,33.87
2022-08-23T14:14:13.367Z,33.87
2022-08-23T14:17:03.001Z,33.49
2022-08-23T14:20:31.983Z,33.37
2022-08-23T14:23:11.444Z,33.42
2022-08-23T14:26:00.754Z,33.24
2022-08-23T14:28:49.347Z,33.04
2022-08-23T14:31:42.790Z,32.99
2022-08-23T14:34:31.732Z,33.00
2022-08-23T14:38:02.016Z,33.04
2022-08-23T14:40:31.721Z,32.28
2022-08-23T14:43:21.656Z,32.82
2022-08-23T14:46:10.259Z,32.78
2022-08-23T14:48:58.942Z,32.90
2022-08-23T14:51:50.337Z,33.14
2022-08-23T14:54:38.928Z,33.23
2022-08-23T14:57:28.916Z,33.32
2022-08-23T15:00:18.432Z,33.39
2022-08-23T15:03:10.226Z,33.46
2022-08-23T15:05:59.057Z,33.39
2022-08-23T15:08:48.241Z,33.41
2022-08-23T15:14:46.737Z,33.10
2022-08-23T15:17:38.086Z,33.00
2022-08-23T15:20:28.815Z,32.99
2022-08-23T15:23:17.356Z,32.94
2022-08-23T15:26:06.035Z,32.55
2022-08-23T15:28:54.641Z,32.74
2022-08-23T15:31:44.593Z,32.68
2022-08-23T15:34:35.436Z,32.75
2022-08-23T15:37:24.141Z,32.10
2022-08-23T15:40:12.955Z,32.18
2022-08-23T15:43:03.187Z,32.21
2022-08-23T15:45:52.186Z,32.23
2022-08-23T15:48:45.883Z,32.31
2022-08-23T15:51:34.403Z,32.37
2022-08-23T15:54:23.056Z,32.22
2022-08-23T15:57:15.334Z,32.25
2022-08-23T16:00:06.035Z,32.20
2022-08-23T16:03:18.870Z,32.01
2022-08-23T16:06:05.385Z,31.97
2022-08-23T16:08:54.428Z,32.09
2022-08-23T16:11:43.014Z,32.05
2022-08-23T16:14:32.542Z,31.95
2022-08-23T16:17:21.729Z,31.91
2022-08-23T16:20:12.533Z,31.78
2022-08-23T16:23:02.637Z,31.74
2022-08-23T16:25:51.259Z,31.58
2022-08-23T16:28:39.832Z,31.61
2022-08-23T16:31:38.338Z,31.53
2022-08-23T16:34:27.713Z,31.42
2022-08-23T16:37:16.251Z,31.49
2022-08-23T16:40:08.590Z,31.23
2022-08-23T16:42:57.421Z,31.38
2022-08-23T16:45:46.076Z,31.34
2022-08-23T16:48:34.857Z,31.40
2022-08-23T16:51:23.401Z,31.21
2022-08-23T16:54:12.724Z,31.25
2022-08-23T16:57:02.986Z,31.30
2022-08-23T16:59:51.630Z,31.14
2022-08-23T17:02:40.851Z,31.19
2022-08-23T17:05:29.693Z,31.06
2022-08-23T17:08:18.502Z,30.77
2022-08-23T17:11:07.887Z,30.92
2022-08-23T17:13:57.849Z,30.99
2022-08-23T17:16:54.905Z,30.82
2022-08-23T17:19:44.510Z,30.79
2022-08-23T17:22:33.142Z,30.81
2022-08-23T17:25:22.487Z,30.64
2022-08-23T17:28:11.528Z,30.70
2022-08-23T17:31:01.453Z,30.62
2022-08-23T17:33:50.026Z,30.50
2022-08-23T17:36:40.305Z,30.46
2022-08-23T17:39:30.188Z,30.30
2022-08-23T17:42:19.543Z,30.21
2022-08-23T17:45:09.892Z,30.16
2022-08-23T17:47:59.794Z,30.03
2022-08-23T17:50:48.652Z,29.93
2022-08-23T17:53:37.254Z,29.78
2022-08-23T17:56:26.948Z,29.71
2022-08-23T17:59:15.614Z,29.65
2022-08-23T18:02:04.943Z,29.53
2022-08-23T18:04:54.884Z,29.47
2022-08-23T18:07:43.462Z,29.35
2022-08-23T18:10:32.224Z,29.21
2022-08-23T18:13:20.774Z,28.93
2022-08-23T18:16:09.399Z,28.88
2022-08-23T18:18:59.097Z,28.70
2022-08-23T18:21:49.248Z,28.61
2022-08-23T18:24:37.884Z,28.45
2022-08-23T18:27:43.891Z,28.24
2022-08-23T18:30:35.972Z,27.97
2022-08-23T18:33:31.432Z,27.95
2022-08-23T18:36:20.990Z,27.74
2022-08-23T18:39:10.904Z,27.51
2022-08-23T18:42:00.525Z,27.40
2022-08-23T18:44:49.178Z,27.26
2022-08-23T18:47:37.929Z,27.08
2022-08-23T18:50:27.732Z,26.81
2022-08-23T18:53:17.061Z,26.69
2022-08-23T18:56:08.088Z,26.56
2022-08-23T18:58:56.693Z,26.39
2022-08-23T19:01:45.437Z,26.24
2022-08-23T19:04:34.081Z,26.04
2022-08-23T19:07:22.671Z,25.89
2022-08-23T19:10:18.394Z,25.77
2022-08-23T19:13:10.536Z,25.68
2022-08-23T19:15:59.169Z,25.55
2022-08-23T19:18:48.082Z,25.35
2022-08-23T19:21:36.977Z,25.25
2022-08-23T19:24:25.973Z,25.17
2022-08-23T19:27:14.995Z,25.07
2022-08-23T19:30:05.535Z,24.92
2022-08-23T19:32:55.271Z,24.84
2022-08-23T19:35:43.892Z,24.49
2022-08-23T19:38:32.799Z,24.37
2022-08-23T19:41:21.538Z,24.22
2022-08-23T19:44:10.639Z,24.22
2022-08-23T19:47:00.922Z,24.16
2022-08-23T19:49:49.510Z,24.11
2022-08-23T19:52:38.639Z,24.07
2022-08-23T19:55:27.433Z,23.98
2022-08-23T19:58:16.095Z,23.88
2022-08-23T20:01:04.725Z,23.61
2022-08-23T20:03:54.988Z,23.61
2022-08-23T20:06:43.624Z,23.55
2022-08-23T20:09:33.440Z,23.50
2022-08-23T20:12:22.012Z,23.50
2022-08-23T20:15:11.863Z,23.35
2022-08-23T20:18:00.746Z,23.42
2022-08-23T20:20:53.499Z,23.30
2022-08-23T20:23:59.661Z,23.25
2022-08-23T20:26:50.961Z,23.18
2022-08-23T20:29:39.475Z,23.19
2022-08-23T20:32:28.385Z,23.18
2022-08-23T20:35:16.925Z,23.22
2022-08-23T20:38:06.981Z,23.15
2022-08-23T20:40:55.537Z,23.05
2022-08-23T20:43:48.640Z,23.00
2022-08-23T20:46:37.729Z,22.73
2022-08-23T20:49:26.400Z,22.95
2022-08-23T20:52:16.607Z,22.92
2022-08-23T20:55:10.659Z,22.91
2022-08-23T20:58:00.740Z,22.91
2022-08-23T21:00:49.362Z,22.93
2022-08-23T21:03:37.948Z,22.93
2022-08-23T21:06:28.500Z,22.79
2022-08-23T21:09:19.306Z,22.66
2022-08-23T21:12:09.438Z,22.84
2022-08-23T21:14:58.048Z,22.81
2022-08-23T21:17:47.686Z,22.87
2022-08-23T21:20:36.743Z,22.87
2022-08-23T21:23:25.532Z,22.75
2022-08-23T21:26:14.509Z,22.76
2022-08-23T21:29:05.496Z,22.76
2022-08-23T21:31:54.010Z,22.58
2022-08-23T21:34:42.527Z,22.65
2022-08-23T21:37:31.188Z,22.55
2022-08-23T21:40:20.053Z,22.47
2022-08-23T21:43:09.446Z,22.38
2022-08-23T21:45:59.501Z,22.24
2022-08-23T21:48:48.118Z,22.05
2022-08-23T21:51:38.457Z,21.94
2022-08-23T21:54:27.137Z,22.06
2022-08-23T21:57:16.411Z,22.13
2022-08-23T22:00:06.702Z,22.08
2022-08-23T22:02:56.775Z,22.12
2022-08-23T22:05:46.774Z,22.03
2022-08-23T22:08:35.339Z,22.06
2022-08-23T22:11:24.366Z,22.00
2022-08-23T22:14:15.353Z,21.81
2022-08-23T22:17:04.252Z,21.76
2022-08-23T22:19:54.097Z,21.69
2022-08-23T22:22:43.481Z,21.68
2022-08-23T22:25:33.291Z,21.58
2022-08-23T22:28:21.779Z,21.57
2022-08-23T22:31:10.481Z,21.39
2022-08-23T22:33:59.031Z,21.35
2022-08-23T22:36:52.184Z,21.44
2022-08-23T22:39:41.697Z,21.45
2022-08-23T22:42:30.356Z,21.40
2022-08-23T22:45:19.741Z,21.29
2022-08-23T22:48:08.421Z,21.34
2022-08-23T22:51:05.932Z,21.19
2022-08-23T22:53:58.856Z,21.34
2022-08-23T22:56:50.605Z,21.25
2022-08-23T22:59:41.466Z,21.34
2022-08-23T23:02:33.111Z,21.33
2022-08-23T23:05:23.603Z,21.37
2022-08-23T23:08:26.729Z,21.23
2022-08-23T23:11:17.673Z,21.24
2022-08-23T23:14:06.878Z,21.22
2022-08-23T23:16:55.533Z,21.18
2022-08-23T23:20:01.693Z,21.19
2022-08-23T23:22:56.181Z,21.20
2022-08-23T23:25:47.739Z,21.14
2022-08-23T23:28:38.613Z,21.09
2022-08-23T23:31:28.857Z,20.94
2022-08-23T23:34:17.784Z,21.21
2022-08-23T23:37:06.511Z,21.13
2022-08-23T23:39:55.043Z,21.01
2022-08-23T23:42:44.024Z,20.94
2022-08-23T23:45:34.050Z,21.02
2022-08-23T23:48:22.611Z,20.91
2022-08-23T23:51:13.469Z,20.91
2022-08-23T23:54:02.417Z,20.96
2022-08-23T23:56:51.039Z,20.90
2022-08-23T23:59:39.919Z,20.82
